CheckWX is a tool to help pilots better visualize weather data.  It is not intended as a substitute for an official pre-flight weather briefing.

12:58:19 UTC

KRNC METAR
Warren County Memorial Airport
Mc Minnville, Tennessee, USA
Current

23 mins ago

KRNC 171235Z AUTO 00000KT 10SM CLR 24/20 A3003 RMK A01
Observed
Jun-17 @ 12:35 UTC
Visibility
10 SM
Flight Rules
VFR
Cloud Levels
  • Clear skies
Temperature
24°C / 75°F
Dewpoint
20°C / 68°F
Humidity
78%
Altimeter
30.03" Hg
Pressure
1016.92 hPa
Previous

43 mins ago

KRNC 171215Z AUTO 00000KT 10SM CLR 23/20 A3002 RMK A01
Observed
Jun-17 @ 12:15 UTC
Visibility
10 SM
Flight Rules
VFR
Cloud Levels
  • Clear skies
Temperature
23°C / 73°F
Dewpoint
20°C / 68°F
Humidity
83%
Altimeter
30.02" Hg
Pressure
1016.62 hPa
Previous

1 hour ago

KRNC 171155Z AUTO 22004KT 10SM CLR 23/20 A3002 RMK A01
Observed
Jun-17 @ 11:55 UTC
Wind
  • 220° at 4 KTS
Visibility
10 SM
Flight Rules
VFR
Cloud Levels
  • Clear skies
Temperature
23°C / 73°F
Dewpoint
20°C / 68°F
Humidity
83%
Altimeter
30.02" Hg
Pressure
1016.62 hPa